createdAt,value
2022-10-11T00:00:44.177Z,85.57
2022-10-11T00:03:10.976Z,85.25
2022-10-11T00:05:38.042Z,85.15
2022-10-11T00:08:07.398Z,84.29
2022-10-11T00:10:34.178Z,83.41
2022-10-11T00:13:00.918Z,83.24
2022-10-11T00:15:27.629Z,83.77
2022-10-11T00:17:54.291Z,83.98
2022-10-11T00:20:20.942Z,84.42
2022-10-11T00:22:49.218Z,83.19
2022-10-11T00:25:16.960Z,83.40
2022-10-11T00:27:43.443Z,82.46
2022-10-11T00:30:11.395Z,81.71
2022-10-11T00:32:38.900Z,82.38
2022-10-11T00:35:07.859Z,82.68
2022-10-11T00:37:35.876Z,81.85
2022-10-11T00:40:04.313Z,81.65
2022-10-11T00:42:31.022Z,81.89
2022-10-11T00:45:31.325Z,81.79
2022-10-11T00:48:05.025Z,83.61
2022-10-11T00:50:34.173Z,83.86
2022-10-11T00:53:07.957Z,84.34
2022-10-11T00:55:39.235Z,84.22
2022-10-11T00:58:06.959Z,84.44
2022-10-11T01:00:33.591Z,83.92
2022-10-11T01:03:00.805Z,84.00
2022-10-11T01:05:30.102Z,84.70
2022-10-11T01:08:00.177Z,85.15
2022-10-11T01:10:28.185Z,85.61
2022-10-11T01:12:57.655Z,85.75
2022-10-11T01:15:43.412Z,86.71
2022-10-11T01:18:45.365Z,86.65
2022-10-11T01:21:24.583Z,87.34
2022-10-11T01:24:13.051Z,86.27
2022-10-11T01:27:09.704Z,87.42
2022-10-11T01:30:17.815Z,86.44
2022-10-11T01:32:57.024Z,87.42
2022-10-11T01:35:35.455Z,87.50
2022-10-11T01:38:11.385Z,87.66
2022-10-11T01:40:45.685Z,88.41
2022-10-11T01:43:13.664Z,88.06
2022-10-11T01:45:41.495Z,88.36
2022-10-11T01:48:11.476Z,88.25
2022-10-11T01:50:41.085Z,88.51
2022-10-11T01:53:25.538Z,88.57
2022-10-11T01:56:15.065Z,87.41
2022-10-11T01:58:56.789Z,87.24
2022-10-11T02:01:32.355Z,88.21
2022-10-11T02:04:29.494Z,88.38
2022-10-11T02:07:06.903Z,89.13
2022-10-11T02:10:03.405Z,88.56
2022-10-11T02:12:40.049Z,89.02
2022-10-11T02:15:09.594Z,89.11
2022-10-11T02:17:50.007Z,88.54
2022-10-11T02:20:21.818Z,88.58
2022-10-11T02:22:51.469Z,88.28
2022-10-11T02:25:22.946Z,88.82
2022-10-11T02:27:53.198Z,89.25
2022-10-11T02:30:19.767Z,89.15
2022-10-11T02:32:49.090Z,89.40
2022-10-11T02:35:16.686Z,89.83
2022-10-11T02:37:43.175Z,89.71
2022-10-11T02:40:35.209Z,89.99
2022-10-11T02:43:03.881Z,89.85
2022-10-11T02:45:41.701Z,90.25
2022-10-11T02:48:11.369Z,90.62
2022-10-11T02:50:40.316Z,90.76
2022-10-11T02:53:08.310Z,91.18
2022-10-11T02:55:35.701Z,91.18
2022-10-11T02:58:02.679Z,91.27
2022-10-11T03:00:29.391Z,91.33
2022-10-11T03:02:55.914Z,91.31
2022-10-11T03:05:22.499Z,91.60
2022-10-11T03:07:48.999Z,91.57
2022-10-11T03:10:15.669Z,92.13
2022-10-11T03:12:42.168Z,91.59
2022-10-11T03:15:09.150Z,90.99
2022-10-11T03:17:37.172Z,91.05
2022-10-11T03:20:06.038Z,89.65
2022-10-11T03:22:32.592Z,90.52
2022-10-11T03:25:03.542Z,90.49
2022-10-11T03:27:30.888Z,90.82
2022-10-11T03:29:57.866Z,91.20
2022-10-11T03:32:24.823Z,91.81
2022-10-11T03:34:51.347Z,92.06
2022-10-11T03:37:18.289Z,92.16
2022-10-11T03:39:45.797Z,92.10
2022-10-11T03:42:13.381Z,91.92
2022-10-11T03:44:41.635Z,92.53
2022-10-11T03:47:08.411Z,92.83
2022-10-11T03:49:38.686Z,92.81
2022-10-11T03:52:07.886Z,93.09
2022-10-11T03:54:34.414Z,94.29
2022-10-11T03:57:00.919Z,93.98
2022-10-11T03:59:27.412Z,94.12
2022-10-11T04:01:54.238Z,94.15
2022-10-11T04:04:20.795Z,94.09
2022-10-11T04:06:47.283Z,94.50
2022-10-11T04:09:13.812Z,94.59
2022-10-11T04:11:40.287Z,94.43
2022-10-11T04:14:06.782Z,94.20
2022-10-11T04:16:33.286Z,94.52
2022-10-11T04:18:59.814Z,95.17
2022-10-11T04:21:26.407Z,95.43
2022-10-11T04:23:52.898Z,95.68
2022-10-11T04:26:19.391Z,96.19
2022-10-11T04:28:46.015Z,95.41
2022-10-11T04:31:12.967Z,95.20
2022-10-11T04:33:39.474Z,95.63
2022-10-11T04:36:06.495Z,95.28
2022-10-11T04:38:33.438Z,95.58
2022-10-11T04:41:11.501Z,95.96
2022-10-11T04:43:38.082Z,95.68
2022-10-11T04:46:06.804Z,96.56
2022-10-11T04:48:33.547Z,96.33
2022-10-11T04:51:00.041Z,96.16
2022-10-11T04:53:26.653Z,96.48
2022-10-11T04:56:05.622Z,96.80
2022-10-11T04:58:34.671Z,96.37
2022-10-11T05:01:01.591Z,96.08
2022-10-11T05:03:28.315Z,96.33
2022-10-11T05:05:54.818Z,96.48
2022-10-11T05:08:23.306Z,96.97
2022-10-11T05:10:58.015Z,96.64
2022-10-11T05:13:25.378Z,96.24
2022-10-11T05:15:51.934Z,96.62
2022-10-11T05:18:18.947Z,97.77
2022-10-11T05:20:45.813Z,98.69
2022-10-11T05:23:12.609Z,98.12
2022-10-11T05:25:39.706Z,98.72
2022-10-11T05:28:06.628Z,98.92
2022-10-11T05:30:33.387Z,99.10
2022-10-11T05:33:00.126Z,98.85
2022-10-11T05:35:26.667Z,99.42
2022-10-11T05:37:53.165Z,99.79
2022-10-11T05:40:19.725Z,100.00
2022-10-11T05:42:46.227Z,100.00
2022-10-11T05:45:12.707Z,100.00
2022-10-11T05:47:39.207Z,100.00
2022-10-11T05:50:06.354Z,100.00
2022-10-11T05:52:32.863Z,100.00
2022-10-11T05:54:59.339Z,100.00
2022-10-11T05:57:25.901Z,99.14
2022-10-11T05:59:52.390Z,99.00
2022-10-11T06:02:18.912Z,98.89
2022-10-11T06:04:45.522Z,98.12
2022-10-11T06:07:12.019Z,97.91
2022-10-11T06:09:39.626Z,97.66
2022-10-11T06:12:06.412Z,97.23
2022-10-11T06:14:32.920Z,96.59
2022-10-11T06:16:59.459Z,95.37
2022-10-11T06:19:26.018Z,94.54
2022-10-11T06:21:52.531Z,92.39
2022-10-11T06:24:19.111Z,91.55
2022-10-11T06:26:45.619Z,90.04
2022-10-11T06:29:12.130Z,88.32
2022-10-11T06:31:38.652Z,84.71
2022-10-11T06:34:05.127Z,83.55
2022-10-11T06:36:31.762Z,83.25
2022-10-11T06:39:01.014Z,81.21
2022-10-11T06:41:30.408Z,80.45
2022-10-11T06:43:57.406Z,79.11
2022-10-11T06:46:25.618Z,79.34
2022-10-11T06:48:53.894Z,77.38
2022-10-11T06:51:21.919Z,77.78
2022-10-11T06:53:52.344Z,78.08
2022-10-11T06:56:19.741Z,75.61
2022-10-11T06:58:46.390Z,75.68
2022-10-11T07:01:18.551Z,73.79
2022-10-11T07:03:45.918Z,75.65
2022-10-11T07:06:15.463Z,76.05
2022-10-11T07:08:42.486Z,75.02
2022-10-11T07:11:12.057Z,73.24
2022-10-11T07:13:39.587Z,74.49
2022-10-11T07:16:11.440Z,71.47
2022-10-11T07:18:38.836Z,72.15
2022-10-11T07:21:07.778Z,70.29
2022-10-11T07:23:34.830Z,70.30
2022-10-11T07:26:01.664Z,70.20
2022-10-11T07:28:30.709Z,69.13
2022-10-11T07:30:58.297Z,70.19
2022-10-11T07:33:25.118Z,69.49
2022-10-11T07:35:51.637Z,69.98
2022-10-11T07:38:18.135Z,68.23
2022-10-11T07:40:46.225Z,66.69
2022-10-11T07:43:13.441Z,66.55
2022-10-11T07:45:45.493Z,66.23
2022-10-11T07:48:12.019Z,65.34
2022-10-11T07:50:38.654Z,65.72
2022-10-11T07:53:05.291Z,65.73
2022-10-11T07:55:40.091Z,65.54
2022-10-11T07:58:11.512Z,63.12
2022-10-11T08:00:39.232Z,64.29
2022-10-11T08:03:06.827Z,63.40
2022-10-11T08:05:34.346Z,63.88
2022-10-11T08:08:01.022Z,61.74
2022-10-11T08:10:28.466Z,62.74
2022-10-11T08:12:55.013Z,60.79
2022-10-11T08:15:22.255Z,61.04
2022-10-11T08:17:48.742Z,59.74
2022-10-11T08:20:15.263Z,58.56
2022-10-11T08:22:42.012Z,59.36
2022-10-11T08:25:08.668Z,60.51
2022-10-11T08:27:35.227Z,60.14
2022-10-11T08:30:01.841Z,59.01
2022-10-11T08:32:29.418Z,59.66
2022-10-11T08:34:56.431Z,59.22
2022-10-11T08:37:22.915Z,59.04
2022-10-11T08:39:49.638Z,59.40
2022-10-11T08:42:19.815Z,58.44
2022-10-11T08:45:10.164Z,59.79
2022-10-11T08:47:42.127Z,58.40
2022-10-11T08:50:19.715Z,58.02
2022-10-11T08:53:01.740Z,59.42
2022-10-11T08:55:42.262Z,59.08
2022-10-11T08:58:12.284Z,58.76
2022-10-11T09:00:40.967Z,57.50
2022-10-11T09:03:38.594Z,57.53
2022-10-11T09:06:23.606Z,54.49
2022-10-11T09:09:14.258Z,55.23
2022-10-11T09:12:02.228Z,54.26
2022-10-11T09:15:14.629Z,53.04
2022-10-11T09:17:56.058Z,53.16
2022-10-11T09:20:58.127Z,52.41
2022-10-11T09:23:45.550Z,53.00
2022-10-11T09:26:23.028Z,51.56
2022-10-11T09:29:19.028Z,51.35
2022-10-11T09:31:49.418Z,53.51
2022-10-11T09:34:16.402Z,50.06
2022-10-11T09:37:04.477Z,50.52
2022-10-11T09:39:36.320Z,50.72
2022-10-11T09:42:07.809Z,51.32
2022-10-11T09:44:39.015Z,49.70
2022-10-11T09:47:06.374Z,50.43
2022-10-11T09:49:40.373Z,49.84
2022-10-11T09:52:15.557Z,50.25
2022-10-11T09:54:48.823Z,49.17
2022-10-11T09:57:28.624Z,49.13
2022-10-11T10:00:21.211Z,47.03
2022-10-11T10:02:50.530Z,46.38
2022-10-11T10:05:22.429Z,46.66
2022-10-11T10:08:05.065Z,43.43
2022-10-11T10:10:40.917Z,44.21
2022-10-11T10:13:29.541Z,42.54
2022-10-11T10:15:59.147Z,43.07
2022-10-11T10:18:34.689Z,39.70
2022-10-11T10:21:02.471Z,39.12
2022-10-11T10:23:31.795Z,38.31
2022-10-11T10:26:17.762Z,36.20
2022-10-11T10:28:57.964Z,37.17
2022-10-11T10:31:55.273Z,37.28
2022-10-11T10:34:39.794Z,38.80
2022-10-11T10:37:22.027Z,39.43
2022-10-11T10:40:14.327Z,40.09
2022-10-11T10:42:40.882Z,40.26
2022-10-11T10:45:18.647Z,40.71
2022-10-11T10:48:08.472Z,41.92
2022-10-11T10:50:43.933Z,42.54
2022-10-11T10:53:46.265Z,41.36
2022-10-11T10:56:19.819Z,41.97
2022-10-11T10:59:31.158Z,41.56
2022-10-11T11:02:35.501Z,41.65
2022-10-11T11:05:04.897Z,41.48
2022-10-11T11:07:41.290Z,41.12
2022-10-11T11:10:16.604Z,41.85
2022-10-11T11:13:19.087Z,40.21
2022-10-11T11:16:01.906Z,40.18
2022-10-11T11:18:34.719Z,38.77
2022-10-11T11:21:13.034Z,39.39
2022-10-11T11:24:09.913Z,38.38
2022-10-11T11:26:46.885Z,37.24
2022-10-11T11:29:31.716Z,35.64
2022-10-11T11:32:17.466Z,35.71
2022-10-11T11:34:43.914Z,32.67
2022-10-11T11:37:32.010Z,32.93
2022-10-11T11:40:06.520Z,29.99
2022-10-11T11:42:41.748Z,29.80
2022-10-11T11:45:33.357Z,30.40
2022-10-11T11:48:24.759Z,30.80
2022-10-11T11:51:02.980Z,29.29
2022-10-11T11:54:01.872Z,28.07
2022-10-11T11:56:47.938Z,28.66
2022-10-11T11:59:30.481Z,27.68
2022-10-11T12:02:24.030Z,26.58
2022-10-11T12:04:52.227Z,26.93
2022-10-11T12:07:22.511Z,26.27
2022-10-11T12:09:54.986Z,26.15
2022-10-11T12:12:27.014Z,26.55
2022-10-11T12:15:04.989Z,27.68
2022-10-11T12:17:31.903Z,26.84
2022-10-11T12:20:14.659Z,25.72
2022-10-11T12:23:03.400Z,28.07
2022-10-11T12:25:35.083Z,26.38
2022-10-11T12:28:22.590Z,27.22
2022-10-11T12:30:52.401Z,25.53
2022-10-11T12:33:30.942Z,25.06
2022-10-11T12:36:07.409Z,26.54
2022-10-11T12:38:38.456Z,28.50
2022-10-11T12:41:10.726Z,28.09
2022-10-11T12:43:49.430Z,27.47
2022-10-11T12:46:28.169Z,27.08
2022-10-11T12:49:05.231Z,25.83
2022-10-11T12:51:44.552Z,25.77
2022-10-11T12:54:36.851Z,26.95
2022-10-11T12:57:14.743Z,24.06
2022-10-11T12:59:46.313Z,26.20
2022-10-11T13:02:42.451Z,25.70
2022-10-11T13:05:17.234Z,25.24
2022-10-11T13:07:43.980Z,24.73
2022-10-11T13:10:15.975Z,24.46
2022-10-11T13:12:47.390Z,24.88
2022-10-11T13:15:16.918Z,25.85
2022-10-11T13:17:44.136Z,25.60
2022-10-11T13:20:16.651Z,26.96
2022-10-11T13:22:47.271Z,28.34
2022-10-11T13:25:28.810Z,29.72
2022-10-11T13:27:59.433Z,31.96
2022-10-11T13:30:30.587Z,33.05
2022-10-11T13:32:58.991Z,34.12
2022-10-11T13:35:37.368Z,35.03
2022-10-11T13:38:07.501Z,35.61
2022-10-11T13:40:35.426Z,36.87
2022-10-11T13:43:05.213Z,39.07
2022-10-11T13:45:32.764Z,39.71
2022-10-11T13:47:59.401Z,39.79
2022-10-11T13:50:34.290Z,40.93
2022-10-11T13:53:03.604Z,41.52
2022-10-11T13:55:36.279Z,41.85
2022-10-11T13:58:16.286Z,43.01
2022-10-11T14:00:57.886Z,45.14
2022-10-11T14:03:36.224Z,44.18
2022-10-11T14:06:03.401Z,45.82
2022-10-11T14:08:38.891Z,44.35
2022-10-11T14:11:07.073Z,43.24
2022-10-11T14:13:53.421Z,44.52
2022-10-11T14:16:20.213Z,44.22
2022-10-11T14:18:59.843Z,43.60
2022-10-11T14:21:28.281Z,43.71
2022-10-11T14:24:05.117Z,40.84
2022-10-11T14:26:37.909Z,42.47
2022-10-11T14:29:26.049Z,45.03
2022-10-11T14:31:56.445Z,44.20
2022-10-11T14:34:25.719Z,44.20
2022-10-11T14:36:53.577Z,43.22
2022-10-11T14:39:23.371Z,41.89
2022-10-11T14:41:51.571Z,43.02
2022-10-11T14:44:19.583Z,40.85
2022-10-11T14:46:47.898Z,40.29
2022-10-11T14:49:22.754Z,41.16
2022-10-11T14:51:50.769Z,44.48
2022-10-11T14:54:22.270Z,44.53
2022-10-11T14:56:50.034Z,43.44
2022-10-11T14:59:19.082Z,44.67
2022-10-11T15:01:51.882Z,47.01
2022-10-11T15:04:20.204Z,47.07
2022-10-11T15:06:47.491Z,47.47
2022-10-11T15:09:14.360Z,47.75
2022-10-11T15:11:40.866Z,47.26
2022-10-11T15:14:07.508Z,48.95
2022-10-11T15:16:34.975Z,49.92
2022-10-11T15:19:01.674Z,49.23
2022-10-11T15:21:29.734Z,52.27
2022-10-11T15:23:56.897Z,52.10
2022-10-11T15:26:29.830Z,52.41
2022-10-11T15:28:57.414Z,53.09
2022-10-11T15:31:24.361Z,54.94
2022-10-11T15:33:51.042Z,55.86
2022-10-11T15:36:21.655Z,55.96
2022-10-11T15:38:48.923Z,55.59
2022-10-11T15:41:18.821Z,55.77
2022-10-11T15:43:47.366Z,57.23
2022-10-11T15:46:17.710Z,56.66
2022-10-11T15:48:45.017Z,57.23
2022-10-11T15:51:11.588Z,58.30
2022-10-11T15:53:38.195Z,58.67
2022-10-11T15:56:07.843Z,59.09
2022-10-11T15:58:37.339Z,60.21
2022-10-11T16:01:07.785Z,60.91
2022-10-11T16:03:35.948Z,62.58
2022-10-11T16:06:05.436Z,62.06
2022-10-11T16:08:33.575Z,62.56
2022-10-11T16:11:00.719Z,63.01
2022-10-11T16:13:27.371Z,63.59
2022-10-11T16:15:54.157Z,65.54
2022-10-11T16:18:22.231Z,65.68
2022-10-11T16:20:51.984Z,66.57
2022-10-11T16:23:20.630Z,66.20
2022-10-11T16:25:57.508Z,66.40
2022-10-11T16:28:24.445Z,68.78
2022-10-11T16:30:51.031Z,68.04
2022-10-11T16:33:17.553Z,67.57
2022-10-11T16:35:44.107Z,67.85
2022-10-11T16:38:11.274Z,68.80
2022-10-11T16:40:39.563Z,69.57
2022-10-11T16:43:07.990Z,69.74
2022-10-11T16:45:36.081Z,70.04
2022-10-11T16:48:03.059Z,68.53
2022-10-11T16:50:29.698Z,71.46
2022-10-11T16:52:56.702Z,71.89
2022-10-11T16:55:23.843Z,72.41
2022-10-11T16:57:50.375Z,72.81
2022-10-11T17:00:17.303Z,72.67
2022-10-11T17:02:43.872Z,72.58
2022-10-11T17:05:10.434Z,73.02
2022-10-11T17:07:36.942Z,73.03
2022-10-11T17:10:04.071Z,73.85
2022-10-11T17:12:31.977Z,74.20
2022-10-11T17:14:58.611Z,74.96
2022-10-11T17:17:25.232Z,75.65
2022-10-11T17:19:51.739Z,76.44
2022-10-11T17:22:19.611Z,75.10
2022-10-11T17:24:46.261Z,75.48
2022-10-11T17:27:12.967Z,75.94
2022-10-11T17:29:39.871Z,75.58
2022-10-11T17:32:06.562Z,75.81
2022-10-11T17:34:33.628Z,75.90
2022-10-11T17:37:00.171Z,74.52
2022-10-11T17:39:26.680Z,76.07
2022-10-11T17:41:53.231Z,76.03
2022-10-11T17:44:20.686Z,77.54
2022-10-11T17:46:48.022Z,78.23
2022-10-11T17:49:14.711Z,76.09
2022-10-11T17:51:43.270Z,75.49
2022-10-11T17:54:13.184Z,76.15
2022-10-11T17:56:41.373Z,75.57
2022-10-11T17:59:11.585Z,75.93
2022-10-11T18:01:38.535Z,76.32
2022-10-11T18:04:06.206Z,76.24
2022-10-11T18:06:38.499Z,75.79
2022-10-11T18:09:05.316Z,76.41
2022-10-11T18:11:32.219Z,76.53
2022-10-11T18:13:58.799Z,77.48
2022-10-11T18:16:28.012Z,77.51
2022-10-11T18:18:57.285Z,76.23
2022-10-11T18:21:27.717Z,76.52
2022-10-11T18:24:03.323Z,75.98
2022-10-11T18:26:30.971Z,77.01
2022-10-11T18:28:58.381Z,77.97
2022-10-11T18:31:27.686Z,78.54
2022-10-11T18:33:55.159Z,78.73
2022-10-11T18:36:23.994Z,78.88
2022-10-11T18:38:55.007Z,79.01
2022-10-11T18:41:23.646Z,79.78
2022-10-11T18:43:54.915Z,80.62
2022-10-11T18:46:23.022Z,80.81
2022-10-11T18:48:52.296Z,80.70
2022-10-11T18:51:22.240Z,80.42
2022-10-11T18:53:49.260Z,81.57
2022-10-11T18:56:20.671Z,81.80
2022-10-11T18:58:48.394Z,82.10
2022-10-11T19:01:18.363Z,82.87
2022-10-11T19:03:46.989Z,82.68
2022-10-11T19:06:19.578Z,82.59
2022-10-11T19:08:55.017Z,81.88
2022-10-11T19:11:23.850Z,82.28
2022-10-11T19:14:08.947Z,82.55
2022-10-11T19:16:38.023Z,82.78
2022-10-11T19:19:05.709Z,83.10
2022-10-11T19:21:32.614Z,83.00
2022-10-11T19:23:59.512Z,82.18
2022-10-11T19:26:33.495Z,82.51
2022-10-11T19:29:01.434Z,81.12
2022-10-11T19:31:28.606Z,81.64
2022-10-11T19:33:56.805Z,82.35
2022-10-11T19:36:23.746Z,82.71
2022-10-11T19:38:51.761Z,83.92
2022-10-11T19:41:20.243Z,83.85
2022-10-11T19:43:47.044Z,84.17
2022-10-11T19:46:27.303Z,84.19
2022-10-11T19:49:03.870Z,84.22
2022-10-11T19:51:34.802Z,85.00
2022-10-11T19:54:04.415Z,84.92
2022-10-11T19:56:32.823Z,85.54
2022-10-11T19:59:00.579Z,86.00
2022-10-11T20:01:29.695Z,86.91
2022-10-11T20:03:59.194Z,87.33
2022-10-11T20:06:27.841Z,87.27
2022-10-11T20:09:16.588Z,88.52
2022-10-11T20:11:41.574Z,88.87
2022-10-11T20:14:08.822Z,88.75
2022-10-11T20:16:35.622Z,88.99
2022-10-11T20:19:02.544Z,89.10
2022-10-11T20:21:30.254Z,88.66
2022-10-11T20:23:59.937Z,88.07
2022-10-11T20:26:27.718Z,87.98
2022-10-11T20:28:56.163Z,87.00
2022-10-11T20:31:25.880Z,87.63
2022-10-11T20:33:55.886Z,87.40
2022-10-11T20:36:23.480Z,87.45
2022-10-11T20:38:50.437Z,87.33
2022-10-11T20:41:22.556Z,87.93
2022-10-11T20:43:52.203Z,87.77
2022-10-11T20:46:21.332Z,88.32
2022-10-11T20:48:55.485Z,87.95
2022-10-11T20:51:24.172Z,87.58
2022-10-11T20:53:50.983Z,87.50
2022-10-11T20:56:19.558Z,87.33
2022-10-11T20:58:46.347Z,87.78
2022-10-11T21:01:18.074Z,87.67
2022-10-11T21:03:45.059Z,87.40
2022-10-11T21:06:12.352Z,87.47
2022-10-11T21:08:40.479Z,88.12
2022-10-11T21:11:07.782Z,87.94
2022-10-11T21:13:34.759Z,87.57
2022-10-11T21:16:15.201Z,87.72
2022-10-11T21:18:42.346Z,87.75
2022-10-11T21:21:14.745Z,87.90
2022-10-11T21:23:41.793Z,88.61
2022-10-11T21:26:10.721Z,88.85
2022-10-11T21:28:38.318Z,89.25
2022-10-11T21:31:10.916Z,89.36
2022-10-11T21:33:38.663Z,88.92
2022-10-11T21:36:24.646Z,88.50
2022-10-11T21:38:52.390Z,88.70
2022-10-11T21:41:21.684Z,89.20
2022-10-11T21:43:48.356Z,89.26
2022-10-11T21:46:36.972Z,89.15
2022-10-11T21:49:13.224Z,90.25
2022-10-11T21:51:39.787Z,90.39
2022-10-11T21:54:06.427Z,90.50
2022-10-11T21:56:33.012Z,90.92
2022-10-11T21:58:59.671Z,91.84
2022-10-11T22:01:26.353Z,91.86
2022-10-11T22:03:54.027Z,91.82
2022-10-11T22:06:20.973Z,91.20
2022-10-11T22:08:49.944Z,91.28
2022-10-11T22:11:16.970Z,91.30
2022-10-11T22:13:43.466Z,91.20
2022-10-11T22:16:13.382Z,91.61
2022-10-11T22:18:41.371Z,91.20
2022-10-11T22:21:13.363Z,90.64
2022-10-11T22:23:41.103Z,90.52
2022-10-11T22:26:10.527Z,91.16
2022-10-11T22:28:37.361Z,91.16
2022-10-11T22:31:08.139Z,90.54
2022-10-11T22:33:35.649Z,90.23
2022-10-11T22:36:04.570Z,91.31
2022-10-11T22:38:31.504Z,90.95
2022-10-11T22:40:59.086Z,91.15
2022-10-11T22:43:25.596Z,90.92
2022-10-11T22:45:52.212Z,91.26
2022-10-11T22:48:18.718Z,91.09
2022-10-11T22:50:45.255Z,91.12
2022-10-11T22:53:13.287Z,91.09
2022-10-11T22:55:39.995Z,91.16
2022-10-11T22:58:06.649Z,91.06
2022-10-11T23:00:33.881Z,91.57
2022-10-11T23:03:00.361Z,91.59
2022-10-11T23:05:26.951Z,91.64
2022-10-11T23:07:53.608Z,91.19
2022-10-11T23:10:20.666Z,91.58
2022-10-11T23:12:47.159Z,91.34
2022-10-11T23:15:13.764Z,91.05
2022-10-11T23:17:40.248Z,91.16
2022-10-11T23:20:07.307Z,91.53
2022-10-11T23:22:33.883Z,91.83
2022-10-11T23:25:00.418Z,91.57
2022-10-11T23:27:29.644Z,91.74
2022-10-11T23:29:56.206Z,91.52
2022-10-11T23:32:22.832Z,91.82
2022-10-11T23:34:49.386Z,92.03
2022-10-11T23:37:15.879Z,92.80
2022-10-11T23:39:42.371Z,92.90
2022-10-11T23:42:08.845Z,93.24
2022-10-11T23:44:35.367Z,92.53
2022-10-11T23:47:02.594Z,92.39
2022-10-11T23:49:29.097Z,92.82
2022-10-11T23:51:55.675Z,93.94
2022-10-11T23:54:22.248Z,94.10
2022-10-11T23:56:48.766Z,94.71
2022-10-11T23:59:15.271Z,95.19
